createdAt,value
2024-04-19T00:01:00.999Z,26.19
2024-04-19T00:04:05.524Z,25.55
2024-04-19T00:07:11.560Z,24.78
2024-04-19T00:10:24.986Z,24.45
2024-04-19T00:13:28.366Z,24.84
2024-04-19T00:16:32.926Z,24.99
2024-04-19T00:19:37.644Z,24.70
2024-04-19T00:22:40.946Z,25.45
2024-04-19T00:25:46.336Z,24.85
2024-04-19T00:28:50.588Z,23.90
2024-04-19T00:31:54.731Z,24.26
2024-04-19T00:34:58.270Z,22.48
2024-04-19T00:38:01.996Z,22.97
2024-04-19T00:41:07.893Z,22.94
2024-04-19T00:44:14.949Z,22.70
2024-04-19T00:47:19.620Z,23.10
2024-04-19T00:50:24.374Z,22.97
2024-04-19T00:53:34.249Z,23.56
2024-04-19T00:56:57.688Z,23.13
2024-04-19T01:00:01.849Z,23.95
2024-04-19T01:03:05.919Z,25.14
2024-04-19T01:06:13.434Z,27.08
2024-04-19T01:09:17.464Z,27.78
2024-04-19T01:12:22.527Z,28.90
2024-04-19T01:15:27.077Z,30.27
2024-04-19T01:18:32.852Z,30.21
2024-04-19T01:21:36.437Z,31.01
2024-04-19T01:24:51.909Z,31.47
2024-04-19T01:27:55.193Z,31.77
2024-04-19T01:30:59.606Z,31.64
2024-04-19T01:34:02.914Z,31.87
2024-04-19T01:37:06.662Z,31.36
2024-04-19T01:40:19.064Z,32.07
2024-04-19T01:43:23.947Z,31.62
2024-04-19T01:46:27.049Z,30.96
2024-04-19T01:49:31.112Z,31.20
2024-04-19T01:52:34.718Z,31.13
2024-04-19T01:55:37.834Z,31.47
2024-04-19T01:58:41.137Z,30.62
2024-04-19T02:01:45.423Z,31.28
2024-04-19T02:04:51.586Z,31.37
2024-04-19T02:07:54.741Z,30.59
2024-04-19T02:11:02.212Z,29.78
2024-04-19T02:14:05.964Z,30.34
2024-04-19T02:17:09.911Z,30.76
2024-04-19T02:20:17.253Z,30.30
2024-04-19T02:23:37.411Z,30.03
2024-04-19T02:26:42.843Z,30.63
2024-04-19T02:30:04.894Z,30.45
2024-04-19T02:33:09.232Z,30.23
2024-04-19T02:36:15.743Z,30.28
2024-04-19T02:39:21.648Z,30.24
2024-04-19T02:42:27.214Z,30.43
2024-04-19T02:45:30.860Z,30.47
2024-04-19T02:48:35.211Z,31.17
2024-04-19T02:51:39.345Z,30.98
2024-04-19T02:54:43.382Z,30.50
2024-04-19T02:57:48.321Z,30.51
2024-04-19T03:01:14.633Z,30.92
2024-04-19T03:04:18.018Z,29.49
2024-04-19T03:07:21.398Z,29.73
2024-04-19T03:10:25.114Z,30.34
2024-04-19T03:13:29.003Z,30.13
2024-04-19T03:16:33.246Z,31.06
2024-04-19T03:19:36.952Z,30.93
2024-04-19T03:22:41.332Z,30.30
2024-04-19T03:25:45.264Z,29.80
2024-04-19T03:28:52.583Z,29.82
2024-04-19T03:31:56.321Z,29.27
2024-04-19T03:35:01.064Z,29.86
2024-04-19T03:38:05.109Z,30.43
2024-04-19T03:41:08.745Z,29.96
2024-04-19T03:44:31.349Z,30.65
2024-04-19T03:47:35.949Z,29.82
2024-04-19T03:50:39.962Z,29.84
2024-04-19T03:53:43.930Z,29.93
2024-04-19T03:56:47.707Z,29.93
2024-04-19T03:59:51.624Z,29.11
2024-04-19T04:02:58.454Z,28.99
2024-04-19T04:06:02.642Z,28.24
2024-04-19T04:09:05.709Z,28.40
2024-04-19T04:12:09.129Z,29.68
2024-04-19T04:15:15.976Z,29.24
2024-04-19T04:18:20.335Z,29.15
2024-04-19T04:21:24.813Z,29.35
2024-04-19T04:24:30.012Z,29.15
2024-04-19T04:27:33.592Z,28.82
2024-04-19T04:30:43.033Z,28.62
2024-04-19T04:33:46.608Z,27.98
2024-04-19T04:36:49.896Z,28.19
2024-04-19T04:39:53.100Z,27.98
2024-04-19T04:42:56.374Z,28.41
2024-04-19T04:45:59.884Z,28.05
2024-04-19T04:49:03.242Z,28.17
2024-04-19T04:52:07.359Z,27.60
2024-04-19T04:55:10.708Z,27.96
2024-04-19T05:01:41.067Z,27.20
2024-04-19T05:04:47.908Z,27.32
2024-04-19T05:07:52.586Z,27.28
2024-04-19T05:10:56.390Z,26.86
2024-04-19T05:13:59.686Z,27.24
2024-04-19T05:17:03.992Z,27.00
2024-04-19T05:20:08.125Z,26.80
2024-04-19T05:23:11.387Z,26.78
2024-04-19T05:26:18.745Z,26.41
2024-04-19T05:29:23.466Z,26.58
2024-04-19T05:32:26.807Z,26.96
2024-04-19T05:35:30.230Z,26.46
2024-04-19T05:38:33.612Z,26.76
2024-04-19T05:41:37.698Z,26.28
2024-04-19T05:44:42.116Z,27.09
2024-04-19T05:47:45.684Z,26.38
2024-04-19T05:50:49.800Z,25.76
2024-04-19T05:53:53.715Z,25.98
2024-04-19T05:56:56.905Z,25.98
2024-04-19T06:00:00.546Z,25.71
2024-04-19T06:03:19.257Z,26.13
2024-04-19T06:06:25.142Z,26.24
2024-04-19T06:09:28.722Z,26.28
2024-04-19T06:12:33.428Z,25.53
2024-04-19T06:15:41.015Z,25.72
2024-04-19T06:18:44.955Z,25.78
2024-04-19T06:21:53.683Z,25.43
2024-04-19T06:24:59.916Z,24.98
2024-04-19T06:28:03.784Z,24.98
2024-04-19T06:31:11.661Z,25.09
2024-04-19T06:34:17.615Z,24.86
2024-04-19T06:37:20.915Z,25.14
2024-04-19T06:40:24.963Z,25.10
2024-04-19T06:43:28.434Z,25.26
2024-04-19T06:46:32.018Z,25.15
2024-04-19T06:49:36.130Z,24.74
2024-04-19T06:52:40.451Z,24.62
2024-04-19T06:55:44.246Z,24.93
2024-04-19T06:58:50.773Z,24.69
2024-04-19T07:01:54.746Z,24.89
2024-04-19T07:04:58.283Z,24.56
2024-04-19T07:08:01.632Z,24.87
2024-04-19T07:11:05.627Z,25.29
2024-04-19T07:14:08.978Z,25.11
2024-04-19T07:17:13.675Z,25.19
2024-04-19T07:20:20.205Z,24.90
2024-04-19T07:23:25.114Z,24.58
2024-04-19T07:26:28.601Z,24.65
2024-04-19T07:29:32.348Z,24.17
2024-04-19T07:32:39.831Z,24.25
2024-04-19T07:35:43.306Z,24.59
2024-04-19T07:38:46.723Z,24.30
2024-04-19T07:41:50.614Z,23.58
2024-04-19T07:44:55.946Z,23.63
2024-04-19T07:47:59.248Z,22.99
2024-04-19T07:51:03.793Z,23.08
2024-04-19T07:54:07.721Z,22.59
2024-04-19T07:57:12.146Z,22.46
2024-04-19T08:00:19.603Z,22.06
2024-04-19T08:03:24.440Z,21.83
2024-04-19T08:06:27.917Z,21.98
2024-04-19T08:09:34.417Z,22.28
2024-04-19T08:12:41.557Z,22.10
2024-04-19T08:15:44.987Z,22.29
2024-04-19T08:18:50.000Z,22.56
2024-04-19T08:21:54.109Z,22.53
2024-04-19T08:24:57.482Z,22.74
2024-04-19T08:28:00.769Z,23.09
2024-04-19T08:31:04.107Z,22.36
2024-04-19T08:34:07.431Z,21.91
2024-04-19T08:37:10.811Z,22.00
2024-04-19T08:40:14.880Z,22.23
2024-04-19T08:43:21.605Z,22.05
2024-04-19T08:46:34.855Z,21.74
2024-04-19T08:49:39.980Z,21.85
2024-04-19T08:53:09.037Z,22.19
2024-04-19T08:56:12.472Z,22.28
2024-04-19T08:59:19.036Z,22.48
2024-04-19T09:02:23.366Z,22.36
2024-04-19T09:05:26.886Z,22.64
2024-04-19T09:08:31.640Z,22.44
2024-04-19T09:11:39.981Z,22.74
2024-04-19T09:14:46.029Z,22.62
2024-04-19T09:17:51.306Z,23.46
2024-04-19T09:20:58.626Z,23.53
2024-04-19T09:24:02.220Z,23.37
2024-04-19T09:27:14.306Z,22.85
2024-04-19T09:30:24.415Z,23.36
2024-04-19T09:33:28.729Z,23.38
2024-04-19T09:36:34.056Z,23.62
2024-04-19T09:39:39.050Z,23.98
2024-04-19T09:42:48.292Z,23.74
2024-04-19T09:45:59.319Z,24.09
2024-04-19T09:49:10.623Z,24.00
2024-04-19T09:52:27.850Z,23.76
2024-04-19T09:55:42.233Z,24.49
2024-04-19T09:58:47.650Z,24.66
2024-04-19T10:01:53.037Z,24.85
2024-04-19T10:04:58.447Z,24.06
2024-04-19T10:08:06.309Z,24.73
2024-04-19T10:11:11.664Z,25.34
2024-04-19T10:14:16.287Z,24.93
2024-04-19T10:17:23.557Z,25.00
2024-04-19T10:20:29.896Z,24.89
2024-04-19T10:23:33.864Z,24.75
2024-04-19T10:26:37.954Z,24.95
2024-04-19T10:29:43.287Z,24.96
2024-04-19T10:32:59.161Z,25.16
2024-04-19T10:36:05.688Z,25.54
2024-04-19T10:39:11.044Z,26.15
2024-04-19T10:42:14.313Z,25.73
2024-04-19T10:45:21.371Z,26.03
2024-04-19T10:48:26.146Z,26.32
2024-04-19T10:51:30.164Z,25.76
2024-04-19T10:54:34.021Z,26.01
2024-04-19T10:57:39.296Z,26.46
2024-04-19T11:00:47.629Z,26.61
2024-04-19T11:03:52.978Z,25.99
2024-04-19T11:06:56.291Z,26.22
2024-04-19T11:10:00.405Z,27.00
2024-04-19T11:13:05.994Z,27.33
2024-04-19T11:16:09.826Z,28.23
2024-04-19T11:19:20.263Z,28.91
2024-04-19T11:22:25.845Z,29.46
2024-04-19T11:25:31.004Z,29.02
2024-04-19T11:28:35.719Z,29.46
2024-04-19T11:31:41.562Z,29.42
2024-04-19T11:34:51.631Z,29.85
2024-04-19T11:37:55.957Z,30.58
2024-04-19T11:41:00.724Z,31.57
2024-04-19T11:44:06.833Z,31.10
2024-04-19T11:47:11.325Z,31.44
2024-04-19T11:50:15.420Z,32.31
2024-04-19T11:53:21.935Z,31.89
2024-04-19T11:56:26.000Z,31.10
2024-04-19T11:59:33.102Z,31.92
2024-04-19T12:02:59.853Z,31.43
2024-04-19T12:06:05.253Z,32.13
2024-04-19T12:09:09.232Z,32.89
2024-04-19T12:13:09.049Z,32.51
2024-04-19T12:16:21.033Z,32.38
2024-04-19T12:19:11.692Z,32.70
2024-04-19T12:22:27.542Z,33.00
2024-04-19T12:25:36.670Z,33.31
2024-04-19T12:28:51.735Z,33.34
2024-04-19T12:32:03.629Z,33.74
2024-04-19T12:35:07.863Z,33.54
2024-04-19T12:38:12.100Z,33.52
2024-04-19T12:41:16.475Z,34.77
2024-04-19T12:44:25.154Z,34.66
2024-04-19T12:47:33.040Z,34.86
2024-04-19T12:50:38.283Z,35.32
2024-04-19T12:53:44.594Z,35.44
2024-04-19T12:56:48.649Z,35.42
2024-04-19T12:59:55.396Z,35.40
2024-04-19T13:02:59.281Z,35.38
2024-04-19T13:06:03.243Z,35.33
2024-04-19T13:09:07.206Z,35.80
2024-04-19T13:12:14.291Z,36.52
2024-04-19T13:15:18.320Z,36.41
2024-04-19T13:18:26.860Z,36.02
2024-04-19T13:21:30.895Z,36.63
2024-04-19T13:24:34.419Z,36.33
2024-04-19T13:27:37.799Z,37.32
2024-04-19T13:30:41.525Z,37.75
2024-04-19T13:33:44.790Z,38.81
2024-04-19T13:36:48.693Z,39.01
2024-04-19T13:39:53.033Z,39.50
2024-04-19T13:42:57.071Z,39.46
2024-04-19T13:46:02.045Z,39.43
2024-04-19T13:49:06.058Z,39.32
2024-04-19T13:52:12.412Z,39.35
2024-04-19T13:55:16.366Z,39.09
2024-04-19T13:58:22.820Z,39.04
2024-04-19T14:01:26.237Z,39.16
2024-04-19T14:04:32.897Z,39.35
2024-04-19T14:07:39.050Z,39.65
2024-04-19T14:10:44.657Z,40.14
2024-04-19T14:13:47.882Z,40.65
2024-04-19T14:16:52.242Z,41.50
2024-04-19T14:19:56.297Z,41.05
2024-04-19T14:22:59.568Z,41.46
2024-04-19T14:26:02.706Z,41.30
2024-04-19T14:29:06.616Z,41.89
2024-04-19T14:32:10.523Z,42.76
2024-04-19T14:35:14.500Z,42.91
2024-04-19T14:38:18.320Z,43.16
2024-04-19T14:41:30.096Z,43.27
2024-04-19T14:44:33.178Z,43.20
2024-04-19T14:47:37.929Z,43.27
2024-04-19T14:50:41.889Z,43.22
2024-04-19T14:53:47.192Z,43.66
2024-04-19T14:56:50.440Z,43.61
2024-04-19T14:59:54.063Z,43.83
2024-04-19T15:02:57.195Z,43.72
2024-04-19T15:06:09.084Z,43.84
2024-04-19T15:09:12.427Z,43.92
2024-04-19T15:12:17.939Z,43.91
2024-04-19T15:15:25.987Z,44.70
2024-04-19T15:18:29.693Z,44.60
2024-04-19T15:21:33.634Z,44.92
2024-04-19T15:24:37.223Z,45.19
2024-04-19T15:27:40.724Z,45.20
2024-04-19T15:30:44.418Z,45.36
2024-04-19T15:33:47.806Z,45.27
2024-04-19T15:36:54.233Z,45.48
2024-04-19T15:39:57.326Z,45.97
2024-04-19T15:43:01.042Z,46.01
2024-04-19T15:46:05.258Z,46.18
2024-04-19T15:49:09.388Z,46.56
2024-04-19T15:52:13.108Z,47.29
2024-04-19T15:55:20.423Z,47.60
2024-04-19T15:58:28.214Z,47.70
2024-04-19T16:01:40.896Z,47.95
2024-04-19T16:04:44.343Z,48.39
2024-04-19T16:07:49.872Z,48.73
2024-04-19T16:10:52.984Z,49.21
2024-04-19T16:13:56.533Z,49.16
2024-04-19T16:17:00.481Z,48.57
2024-04-19T16:20:07.272Z,48.75
2024-04-19T16:23:12.310Z,49.04
2024-04-19T16:26:15.739Z,49.28
2024-04-19T16:29:20.234Z,49.16
2024-04-19T16:32:27.949Z,49.17
2024-04-19T16:35:31.196Z,49.58
2024-04-19T16:38:34.536Z,48.08
2024-04-19T16:41:40.514Z,48.64
2024-04-19T16:44:49.031Z,48.15
2024-04-19T16:47:52.832Z,48.58
2024-04-19T16:50:58.458Z,49.54
2024-04-19T16:54:03.402Z,50.58
2024-04-19T16:57:07.199Z,50.53
2024-04-19T17:00:10.857Z,50.71
2024-04-19T17:03:16.517Z,51.28
2024-04-19T17:06:20.384Z,51.85
2024-04-19T17:09:27.210Z,50.71
2024-04-19T17:12:30.505Z,50.77
2024-04-19T17:15:36.223Z,50.79
2024-04-19T17:18:39.610Z,51.43
2024-04-19T17:21:43.525Z,51.74
2024-04-19T17:24:47.785Z,51.88
2024-04-19T17:27:51.271Z,52.61
2024-04-19T17:30:54.558Z,52.55
2024-04-19T17:33:58.299Z,52.54
2024-04-19T17:37:02.091Z,52.43
2024-04-19T17:40:07.434Z,51.91
2024-04-19T17:43:11.643Z,52.31
2024-04-19T17:46:15.096Z,51.58
2024-04-19T17:49:19.192Z,50.96
2024-04-19T17:52:26.475Z,50.88
2024-04-19T17:55:31.051Z,51.31
2024-04-19T17:58:35.527Z,51.64
2024-04-19T18:01:38.824Z,51.74
2024-04-19T18:04:42.641Z,51.59
2024-04-19T18:07:46.442Z,52.07
2024-04-19T18:10:50.316Z,52.60
2024-04-19T18:13:56.409Z,52.25
2024-04-19T18:16:59.607Z,52.28
2024-04-19T18:20:05.309Z,52.48
2024-04-19T18:23:08.958Z,52.21
2024-04-19T18:26:12.576Z,52.00
2024-04-19T18:29:16.040Z,52.01
2024-04-19T18:32:19.868Z,52.14
2024-04-19T18:35:25.394Z,52.35
2024-04-19T18:38:28.323Z,52.20
2024-04-19T18:41:31.903Z,52.25
2024-04-19T18:44:34.957Z,52.22
2024-04-19T18:47:40.656Z,52.27
2024-04-19T18:50:44.181Z,53.33
2024-04-19T18:53:48.122Z,52.76
2024-04-19T18:56:51.206Z,53.08
2024-04-19T18:59:55.290Z,53.42
2024-04-19T19:02:58.494Z,53.19
2024-04-19T19:06:01.691Z,53.47
2024-04-19T19:09:07.798Z,53.55
2024-04-19T19:12:12.032Z,53.87
2024-04-19T19:15:19.156Z,53.44
2024-04-19T19:18:28.894Z,54.06
2024-04-19T19:21:34.995Z,54.73
2024-04-19T19:24:39.545Z,54.93
2024-04-19T19:27:42.693Z,54.69
2024-04-19T19:30:46.261Z,54.84
2024-04-19T19:33:49.470Z,55.57
2024-04-19T19:36:53.318Z,56.23
2024-04-19T19:39:57.982Z,56.67
2024-04-19T19:43:01.393Z,56.92
2024-04-19T19:46:05.377Z,57.20
2024-04-19T19:49:09.241Z,57.77
2024-04-19T19:52:13.753Z,57.96
2024-04-19T19:55:16.912Z,58.11
2024-04-19T19:58:23.102Z,57.92
2024-04-19T20:01:47.928Z,58.18
2024-04-19T20:05:09.896Z,58.36
2024-04-19T20:08:16.814Z,58.82
2024-04-19T20:11:20.223Z,59.01
2024-04-19T20:14:29.262Z,58.77
2024-04-19T20:17:32.923Z,58.05
2024-04-19T20:20:36.029Z,58.81
2024-04-19T20:23:39.999Z,59.01
2024-04-19T20:26:45.209Z,59.62
2024-04-19T20:29:49.239Z,59.68
2024-04-19T20:32:52.592Z,59.45
2024-04-19T20:35:55.744Z,59.24
2024-04-19T20:38:58.867Z,58.91
2024-04-19T20:42:02.070Z,58.92
2024-04-19T20:45:06.142Z,58.98
2024-04-19T20:48:09.916Z,58.65
2024-04-19T20:51:13.640Z,58.49
2024-04-19T20:54:18.027Z,58.94
2024-04-19T20:57:21.870Z,58.76
2024-04-19T21:00:27.526Z,58.74
2024-04-19T21:03:31.451Z,59.00
2024-04-19T21:06:34.648Z,59.00
2024-04-19T21:09:38.342Z,58.81
2024-04-19T21:12:41.600Z,59.17
2024-04-19T21:16:13.904Z,59.45
2024-04-19T21:19:20.917Z,59.19
2024-04-19T21:22:24.072Z,59.12
2024-04-19T21:25:30.593Z,59.02
2024-04-19T21:28:34.662Z,59.58
2024-04-19T21:31:38.694Z,59.21
2024-04-19T21:34:41.873Z,59.42
2024-04-19T21:37:45.398Z,59.24
2024-04-19T21:40:48.478Z,59.32
2024-04-19T21:43:51.530Z,59.15
2024-04-19T21:46:55.774Z,58.86
2024-04-19T21:49:59.788Z,59.03
2024-04-19T21:53:03.484Z,58.87
2024-04-19T21:56:09.690Z,58.62
2024-04-19T21:59:13.813Z,58.28
2024-04-19T22:02:17.171Z,58.48
2024-04-19T22:05:21.244Z,57.91
2024-04-19T22:08:24.468Z,57.34
2024-04-19T22:11:30.981Z,57.06
2024-04-19T22:14:34.167Z,57.96
2024-04-19T22:17:38.856Z,58.04
2024-04-19T22:20:42.853Z,57.99
2024-04-19T22:23:45.903Z,57.67
2024-04-19T22:26:49.170Z,56.92
2024-04-19T22:29:56.098Z,56.31
2024-04-19T22:33:01.047Z,56.11
2024-04-19T22:36:09.216Z,54.74
2024-04-19T22:39:12.862Z,50.37
2024-04-19T22:42:16.103Z,44.23
2024-04-19T22:45:19.248Z,40.64
2024-04-19T22:48:22.538Z,36.78
2024-04-19T22:51:30.552Z,33.95
2024-04-19T22:54:33.781Z,32.73
2024-04-19T22:57:36.942Z,32.39
2024-04-19T23:00:41.300Z,30.90
2024-04-19T23:03:45.081Z,29.18
2024-04-19T23:06:52.341Z,29.17
2024-04-19T23:09:55.568Z,27.98
2024-04-19T23:12:59.636Z,27.14
2024-04-19T23:16:04.150Z,26.00
2024-04-19T23:19:07.545Z,25.31
2024-04-19T23:22:11.398Z,24.80
2024-04-19T23:25:15.789Z,24.38
2024-04-19T23:28:19.207Z,24.04
2024-04-19T23:31:22.516Z,23.55
2024-04-19T23:34:28.648Z,23.56
2024-04-19T23:37:32.350Z,23.37
2024-04-19T23:40:36.321Z,23.24
2024-04-19T23:43:39.983Z,22.39
2024-04-19T23:46:43.060Z,22.54
2024-04-19T23:49:46.259Z,22.76
2024-04-19T23:52:50.160Z,22.56
2024-04-19T23:55:53.821Z,22.08
2024-04-19T23:58:56.970Z,21.65
